createdAt,value
2019-03-06T01:04:43.542Z,68.17
2019-03-06T01:09:44.826Z,67.98
2019-03-06T01:14:46.898Z,67.87
2019-03-06T01:19:48.168Z,67.74
2019-03-06T01:24:49.467Z,67.70
2019-03-06T01:29:51.543Z,67.72
2019-03-06T02:31:54.113Z,67.72
2019-03-06T02:36:55.395Z,68.45
2019-03-06T02:41:57.450Z,68.49
2019-03-06T02:46:58.743Z,68.49
2019-03-06T02:52:02.075Z,68.38
2019-03-06T02:57:03.436Z,68.62
2019-03-06T04:05:26.138Z,68.40
2019-03-06T04:10:28.185Z,68.44
2019-03-06T04:15:29.497Z,68.18
2019-03-06T04:20:30.797Z,68.20
2019-03-06T04:25:32.141Z,67.82
2019-03-06T04:30:33.466Z,67.96
2019-03-06T05:32:36.172Z,67.46
2019-03-06T05:37:48.507Z,67.56
2019-03-06T05:42:49.791Z,67.52
2019-03-06T05:47:51.084Z,67.78
2019-03-06T05:52:52.400Z,67.72
2019-03-06T05:57:53.724Z,67.53
2019-03-06T07:00:47.979Z,65.38
2019-03-06T07:05:51.153Z,64.89
2019-03-06T07:10:57.551Z,64.44
2019-03-06T07:16:02.901Z,64.31
2019-03-06T07:21:05.194Z,63.86
2019-03-06T07:26:11.361Z,62.99
2019-03-06T08:34:33.655Z,57.52
2019-03-06T08:39:35.773Z,56.32
2019-03-06T08:44:37.069Z,55.20
2019-03-06T08:49:43.420Z,55.10
2019-03-06T08:54:46.125Z,54.06
2019-03-06T08:59:47.478Z,54.84
2019-03-06T10:01:55.572Z,50.11
2019-03-06T10:07:00.772Z,49.18
2019-03-06T10:12:03.877Z,44.46
2019-03-06T10:17:09.071Z,46.29
2019-03-06T10:22:10.373Z,45.91
2019-03-06T10:27:12.413Z,44.36
2019-03-06T11:35:35.058Z,41.48
2019-03-06T11:40:37.080Z,40.20
2019-03-06T11:45:38.400Z,40.00
2019-03-06T11:50:41.057Z,41.01
2019-03-06T11:55:41.172Z,39.99
2019-03-06T13:04:02.988Z,38.21
2019-03-06T13:09:04.329Z,38.37
2019-03-06T13:14:05.633Z,38.06
2019-03-06T13:19:06.983Z,36.91
2019-03-06T13:24:08.350Z,37.06
2019-03-06T13:29:09.729Z,36.64
2019-03-06T14:31:12.795Z,34.57
2019-03-06T14:36:14.065Z,34.31
2019-03-06T14:41:15.399Z,34.37
2019-03-06T14:46:17.037Z,33.88
2019-03-06T14:51:18.056Z,33.53
2019-03-06T14:56:19.404Z,34.02
2019-03-06T16:04:43.048Z,38.70
2019-03-06T16:09:44.396Z,38.71
2019-03-06T16:14:45.681Z,39.23
2019-03-06T16:19:47.001Z,39.92
2019-03-06T16:24:48.316Z,39.12
2019-03-06T16:29:49.644Z,40.46
2019-03-06T16:34:52.133Z,41.49
2019-03-06T16:39:53.444Z,40.55
2019-03-06T16:44:54.754Z,41.38
2019-03-06T16:49:56.820Z,41.78
2019-03-06T16:54:58.942Z,41.75
2019-03-06T17:00:00.363Z,42.59
2019-03-06T17:05:01.677Z,43.43
2019-03-06T17:10:03.027Z,43.62
2019-03-06T17:15:04.350Z,43.56
2019-03-06T17:20:10.433Z,44.88
2019-03-06T17:25:11.800Z,43.71
2019-03-06T17:30:17.701Z,45.53
2019-03-06T17:35:19.103Z,45.29
2019-03-06T17:40:20.450Z,45.97
2019-03-06T17:45:21.781Z,45.24
2019-03-06T17:50:23.168Z,46.34
2019-03-06T17:55:24.493Z,46.19
2019-03-06T18:00:28.788Z,46.80
2019-03-06T18:05:30.578Z,46.02
2019-03-06T18:10:32.122Z,46.80
2019-03-06T18:15:33.501Z,46.64
2019-03-06T18:20:34.893Z,47.61
2019-03-06T18:25:36.314Z,46.75
2019-03-06T18:30:37.672Z,47.03
2019-03-06T18:35:39.216Z,47.15
2019-03-06T18:40:41.351Z,47.17
2019-03-06T18:45:42.705Z,47.21
2019-03-06T18:50:44.091Z,47.39
2019-03-06T18:55:45.450Z,47.44
2019-03-06T19:00:46.903Z,47.55
2019-03-06T19:05:49.078Z,47.78
2019-03-06T19:10:50.504Z,47.45
2019-03-06T19:15:53.874Z,47.69
2019-03-06T19:20:54.101Z,47.17
2019-03-06T19:25:55.585Z,47.08
2019-03-06T19:30:56.933Z,47.02
2019-03-06T19:35:58.508Z,46.71
2019-03-06T19:40:59.975Z,46.10
2019-03-06T19:46:01.422Z,45.89
2019-03-06T19:51:02.813Z,45.71
2019-03-06T19:56:04.201Z,45.30
2019-03-06T20:01:05.617Z,44.76
2019-03-06T20:06:07.096Z,44.51
2019-03-06T20:11:08.618Z,43.26
2019-03-06T20:16:10.005Z,42.88
2019-03-06T20:21:11.365Z,42.32
2019-03-06T20:26:15.085Z,41.88
2019-03-06T20:31:21.164Z,41.54
2019-03-06T20:36:22.481Z,41.42
2019-03-06T20:41:33.045Z,40.99
2019-03-06T20:46:37.754Z,40.16
2019-03-06T20:51:41.446Z,39.37
2019-03-06T20:56:53.542Z,38.38
2019-03-06T21:01:55.594Z,37.69
2019-03-06T21:06:58.457Z,37.93
2019-03-06T21:12:00.663Z,37.76
2019-03-06T21:17:02.223Z,35.50
2019-03-06T21:22:03.660Z,36.40
2019-03-06T21:27:05.084Z,36.36
2019-03-06T21:32:06.467Z,36.64
2019-03-06T21:37:15.150Z,36.31
2019-03-06T21:42:19.702Z,35.84
2019-03-06T21:47:21.058Z,36.32
2019-03-06T21:52:23.106Z,36.08
2019-03-06T21:57:23.874Z,35.93
2019-03-06T22:02:25.278Z,36.18
2019-03-06T22:07:26.627Z,36.06
2019-03-06T22:12:28.049Z,36.08
2019-03-06T22:17:29.473Z,35.90
2019-03-06T22:22:30.849Z,35.91
2019-03-06T22:27:32.219Z,35.91
2019-03-06T22:32:33.571Z,35.40
2019-03-06T22:37:34.924Z,35.45
2019-03-06T22:42:36.291Z,35.41
2019-03-06T22:47:37.653Z,35.61
2019-03-06T22:52:39.148Z,35.26
2019-03-06T22:57:41.240Z,35.39
2019-03-06T23:34:21.698Z,35.18
2019-03-06T23:39:23.768Z,35.10
2019-03-06T23:44:25.827Z,35.14
2019-03-06T23:49:27.173Z,35.10
2019-03-06T23:54:28.513Z,35.20
2019-03-06T23:59:29.865Z,35.10
